createdAt,value
2019-03-08T00:01:42.326Z,57.27
2019-03-08T00:04:19.855Z,60.05
2019-03-08T00:06:56.444Z,55.00
2019-03-08T00:09:33.470Z,55.45
2019-03-08T00:12:09.918Z,53.85
2019-03-08T00:14:46.771Z,54.88
2019-03-08T00:17:23.952Z,56.20
2019-03-08T00:20:01.728Z,57.40
2019-03-08T00:22:39.311Z,60.58
2019-03-08T00:25:16.465Z,58.05
2019-03-08T00:27:53.758Z,58.63
2019-03-08T00:30:31.009Z,57.45
2019-03-08T00:33:07.780Z,57.48
2019-03-08T00:35:45.417Z,59.67
2019-03-08T00:38:22.576Z,56.98
2019-03-08T00:40:58.645Z,57.05
2019-03-08T00:43:35.594Z,59.20
2019-03-08T00:46:12.531Z,59.08
2019-03-08T00:48:49.669Z,59.42
2019-03-08T00:51:26.038Z,59.95
2019-03-08T00:54:03.220Z,60.90
2019-03-08T00:56:39.868Z,60.50
2019-03-08T00:59:16.860Z,61.65
2019-03-08T01:01:53.359Z,58.98
2019-03-08T01:04:30.403Z,59.38
2019-03-08T01:07:07.271Z,59.77
2019-03-08T01:09:44.130Z,59.50
2019-03-08T01:12:21.076Z,61.37
2019-03-08T01:14:57.852Z,57.00
2019-03-08T01:17:34.573Z,58.02
2019-03-08T01:20:12.301Z,57.15
2019-03-08T01:22:48.592Z,58.23
2019-03-08T01:25:25.883Z,58.52
2019-03-08T01:28:06.824Z,55.95
2019-03-08T01:30:44.347Z,55.98
2019-03-08T01:33:21.568Z,55.43
2019-03-08T01:35:57.973Z,55.52
2019-03-08T01:38:35.019Z,54.05
2019-03-08T01:41:11.590Z,55.17
2019-03-08T01:43:48.363Z,55.40
2019-03-08T01:46:25.257Z,59.13
2019-03-08T01:49:03.384Z,58.45
2019-03-08T01:51:40.277Z,58.30
2019-03-08T01:54:17.067Z,56.55
2019-03-08T01:56:53.970Z,58.33
2019-03-08T01:59:30.990Z,57.00
2019-03-08T02:02:07.934Z,55.63
2019-03-08T02:04:44.338Z,57.15
2019-03-08T02:07:21.477Z,53.30
2019-03-08T02:09:58.571Z,50.43
2019-03-08T02:12:35.526Z,48.73
2019-03-08T02:15:12.357Z,46.15
2019-03-08T02:17:49.954Z,45.70
2019-03-08T02:20:27.584Z,45.50
2019-03-08T02:23:04.861Z,45.78
2019-03-08T02:25:41.502Z,44.73
2019-03-08T02:28:19.675Z,43.55
2019-03-08T02:30:57.615Z,44.77
2019-03-08T02:33:34.418Z,43.00
2019-03-08T02:36:11.106Z,42.48
2019-03-08T02:38:47.691Z,42.03
2019-03-08T02:41:24.726Z,39.05
2019-03-08T02:44:01.311Z,40.73
2019-03-08T02:46:38.274Z,39.55
2019-03-08T02:49:15.034Z,38.85
2019-03-08T02:53:33.048Z,40.67
2019-03-08T02:56:10.057Z,41.18
2019-03-08T02:58:47.465Z,39.90
2019-03-08T03:01:24.099Z,38.28
2019-03-08T03:04:01.046Z,37.53
2019-03-08T03:08:17.224Z,37.73
2019-03-08T03:10:54.353Z,55.50
2019-03-08T03:13:31.608Z,43.25
2019-03-08T03:16:08.162Z,39.50
2019-03-08T03:18:44.817Z,39.80
2019-03-08T03:21:21.616Z,39.25
2019-03-08T03:23:58.641Z,39.63
2019-03-08T03:26:35.513Z,38.65
2019-03-08T03:29:12.225Z,39.73
2019-03-08T03:31:50.551Z,39.20
2019-03-08T03:34:28.266Z,40.03
2019-03-08T03:37:05.253Z,39.73
2019-03-08T03:39:48.109Z,39.95
2019-03-08T03:42:26.136Z,38.75
2019-03-08T03:45:03.364Z,36.98
2019-03-08T03:47:40.707Z,38.13
2019-03-08T03:50:18.984Z,36.90
2019-03-08T03:52:56.051Z,35.13
2019-03-08T03:55:33.099Z,36.93
2019-03-08T03:58:09.980Z,37.78
2019-03-08T04:00:47.660Z,35.55
2019-03-08T04:03:24.549Z,35.95
2019-03-08T04:06:01.081Z,36.53
2019-03-08T04:08:38.079Z,36.68
2019-03-08T04:11:14.341Z,35.90
2019-03-08T04:13:51.381Z,36.10
2019-03-08T04:16:28.308Z,35.90
2019-03-08T04:19:05.107Z,35.08
2019-03-08T04:21:42.073Z,35.35
2019-03-08T04:24:18.602Z,34.43
2019-03-08T04:26:55.550Z,34.60
2019-03-08T04:29:32.199Z,32.23
2019-03-08T04:32:09.477Z,31.75
2019-03-08T04:34:46.426Z,31.30
2019-03-08T04:37:23.444Z,32.48
2019-03-08T04:40:00.776Z,32.67
2019-03-08T04:42:38.594Z,31.40
2019-03-08T04:45:15.680Z,32.03
2019-03-08T04:47:53.157Z,31.97
2019-03-08T04:50:29.741Z,32.03
2019-03-08T04:53:06.549Z,32.13
2019-03-08T04:55:43.489Z,31.60
2019-03-08T04:58:20.573Z,31.05
2019-03-08T05:00:57.467Z,31.87
2019-03-08T05:03:34.048Z,30.55
2019-03-08T05:06:10.621Z,29.72
2019-03-08T05:08:50.490Z,28.15
2019-03-08T05:11:27.233Z,26.12
2019-03-08T05:14:04.340Z,27.02
2019-03-08T05:16:41.121Z,26.20
2019-03-08T05:19:18.203Z,25.62
2019-03-08T05:21:55.166Z,23.18
2019-03-08T05:24:31.845Z,21.87
2019-03-08T05:27:08.619Z,20.08
2019-03-08T05:29:45.817Z,20.35
2019-03-08T05:32:22.181Z,20.48
2019-03-08T05:34:59.177Z,19.40
2019-03-08T05:37:36.014Z,19.23
2019-03-08T05:40:14.356Z,19.70
2019-03-08T05:42:51.425Z,18.95
2019-03-08T05:45:27.928Z,19.75
2019-03-08T05:48:06.322Z,19.48
2019-03-08T05:50:43.017Z,19.20
2019-03-08T05:53:19.883Z,19.02
2019-03-08T05:55:56.733Z,17.32
2019-03-08T05:58:34.023Z,16.50
2019-03-08T06:01:10.962Z,17.35
2019-03-08T06:03:47.908Z,16.48
2019-03-08T06:06:26.067Z,17.15
2019-03-08T06:09:02.567Z,16.77
2019-03-08T06:11:40.623Z,16.67
2019-03-08T06:14:17.838Z,15.45
2019-03-08T06:17:02.923Z,15.78
2019-03-08T06:19:40.243Z,15.72
2019-03-08T06:22:17.405Z,15.60
2019-03-08T06:24:54.296Z,14.90
2019-03-08T06:27:40.116Z,14.20
2019-03-08T06:30:17.112Z,14.65
2019-03-08T06:33:00.835Z,14.70
2019-03-08T06:35:37.999Z,14.98
2019-03-08T06:38:15.548Z,14.75
2019-03-08T06:40:52.862Z,15.43
2019-03-08T06:43:29.936Z,14.63
2019-03-08T06:46:07.142Z,14.70
2019-03-08T06:48:45.504Z,15.18
2019-03-08T06:51:22.907Z,15.10
2019-03-08T06:53:59.910Z,15.23
2019-03-08T06:56:36.765Z,14.70
2019-03-08T06:59:19.854Z,14.43
2019-03-08T07:01:57.778Z,14.10
2019-03-08T07:04:35.175Z,13.40
2019-03-08T07:07:12.080Z,13.08
2019-03-08T07:09:57.780Z,13.43
2019-03-08T07:12:36.153Z,13.53
2019-03-08T07:15:14.216Z,14.07
2019-03-08T07:17:51.069Z,13.55
2019-03-08T07:20:39.889Z,13.68
2019-03-08T07:23:44.196Z,14.53
2019-03-08T07:26:40.547Z,13.22
2019-03-08T07:29:38.938Z,13.18
2019-03-08T07:32:34.045Z,13.38
2019-03-08T07:35:38.464Z,13.58
2019-03-08T07:38:32.969Z,13.70
2019-03-08T07:41:46.029Z,13.58
2019-03-08T07:44:43.733Z,12.75
2019-03-08T07:47:33.787Z,13.20
2019-03-08T07:50:34.789Z,12.58
2019-03-08T07:53:38.886Z,13.45
2019-03-08T07:56:37.104Z,13.62
2019-03-08T07:59:29.940Z,14.10
2019-03-08T08:02:16.846Z,15.13
2019-03-08T08:05:14.206Z,15.65
2019-03-08T08:08:09.329Z,16.30
2019-03-08T08:11:19.891Z,16.10
2019-03-08T08:14:20.951Z,17.17
2019-03-08T08:17:18.981Z,15.78
2019-03-08T08:20:16.345Z,16.10
2019-03-08T08:23:03.399Z,16.90
2019-03-08T08:25:56.959Z,16.48
2019-03-08T08:28:55.974Z,17.80
2019-03-08T08:31:44.730Z,15.75
2019-03-08T08:34:39.515Z,15.55
2019-03-08T08:37:36.484Z,15.90
2019-03-08T08:40:46.926Z,15.35
2019-03-08T08:43:40.593Z,15.08
2019-03-08T08:46:33.728Z,14.98
2019-03-08T08:49:29.580Z,15.60
2019-03-08T08:52:30.874Z,15.40
2019-03-08T08:55:26.523Z,15.00
2019-03-08T08:58:39.987Z,14.63
2019-03-08T09:01:43.835Z,20.17
2019-03-08T09:04:41.475Z,20.05
2019-03-08T09:07:39.643Z,18.80
2019-03-08T09:10:36.291Z,19.60
2019-03-08T09:13:19.292Z,18.82
2019-03-08T09:16:10.417Z,21.27
2019-03-08T09:19:17.927Z,18.40
2019-03-08T09:22:07.382Z,17.30
2019-03-08T09:25:01.265Z,16.48
2019-03-08T09:28:05.901Z,15.70
2019-03-08T09:30:58.537Z,15.63
2019-03-08T09:33:43.089Z,14.80
2019-03-08T09:36:28.492Z,15.48
2019-03-08T09:39:24.963Z,18.05
2019-03-08T09:42:19.508Z,18.50
2019-03-08T09:45:23.271Z,16.97
2019-03-08T09:48:24.478Z,17.32
2019-03-08T09:51:14.069Z,17.02
2019-03-08T09:57:14.379Z,18.37
2019-03-08T10:00:15.068Z,17.77
2019-03-08T10:03:08.909Z,16.87
2019-03-08T10:06:04.538Z,15.93
2019-03-08T10:08:57.592Z,15.63
2019-03-08T10:11:44.122Z,15.32
2019-03-08T10:14:42.088Z,16.40
2019-03-08T10:17:42.928Z,16.05
2019-03-08T10:20:34.651Z,16.10
2019-03-08T10:23:28.842Z,16.05
2019-03-08T10:26:21.429Z,15.50
2019-03-08T10:29:19.856Z,16.52
2019-03-08T10:32:15.113Z,16.25
2019-03-08T10:35:14.330Z,16.52
2019-03-08T10:38:07.729Z,16.32
2019-03-08T10:41:01.922Z,16.07
2019-03-08T10:43:51.925Z,16.73
2019-03-08T10:46:49.891Z,17.32
2019-03-08T10:49:42.941Z,18.12
2019-03-08T10:52:32.678Z,17.35
2019-03-08T10:55:29.898Z,18.12
2019-03-08T10:58:31.495Z,18.00
2019-03-08T11:01:15.210Z,18.80
2019-03-08T11:04:09.831Z,19.15
2019-03-08T11:07:13.791Z,18.92
2019-03-08T11:10:17.703Z,19.07
2019-03-08T11:13:12.395Z,18.35
2019-03-08T11:16:22.300Z,18.62
2019-03-08T11:19:15.708Z,19.42
2019-03-08T11:22:09.213Z,18.73
2019-03-08T11:25:14.700Z,19.12
2019-03-08T11:28:02.432Z,18.67
2019-03-08T11:30:53.960Z,19.15
2019-03-08T11:33:50.476Z,20.05
2019-03-08T11:36:48.682Z,19.95
2019-03-08T11:39:50.033Z,19.92
2019-03-08T11:42:31.791Z,21.55
2019-03-08T11:45:20.060Z,20.70
2019-03-08T11:48:24.851Z,21.23
2019-03-08T11:51:19.421Z,22.00
2019-03-08T11:54:12.821Z,21.62
2019-03-08T11:57:19.879Z,21.48
2019-03-08T12:00:15.399Z,21.25
2019-03-08T12:03:13.484Z,22.67
2019-03-08T12:06:04.047Z,23.47
2019-03-08T12:08:46.648Z,26.77
2019-03-08T12:11:42.518Z,24.82
2019-03-08T12:14:35.491Z,27.13
2019-03-08T12:17:20.653Z,25.57
2019-03-08T12:20:19.335Z,26.62
2019-03-08T12:23:16.702Z,24.75
2019-03-08T12:26:04.785Z,24.35
2019-03-08T12:29:07.836Z,24.37
2019-03-08T12:32:00.421Z,26.15
2019-03-08T12:34:54.762Z,25.72
2019-03-08T12:37:41.059Z,25.20
2019-03-08T12:40:36.061Z,25.05
2019-03-08T12:43:34.979Z,23.50
2019-03-08T12:46:38.780Z,24.52
2019-03-08T12:49:39.342Z,22.73
2019-03-08T12:52:28.019Z,23.47
2019-03-08T12:55:28.942Z,21.33
2019-03-08T12:58:19.655Z,21.05
2019-03-08T13:01:15.725Z,20.68
2019-03-08T13:04:19.443Z,21.70
2019-03-08T13:07:09.155Z,21.85
2019-03-08T13:09:49.909Z,21.50
2019-03-08T13:12:26.876Z,21.45
2019-03-08T13:15:05.207Z,21.82
2019-03-08T13:17:41.232Z,21.73
2019-03-08T13:20:19.965Z,21.35
2019-03-08T13:22:57.740Z,22.20
2019-03-08T13:25:34.706Z,22.93
2019-03-08T13:28:12.459Z,22.95
2019-03-08T13:30:49.101Z,22.13
2019-03-08T13:33:25.517Z,22.45
2019-03-08T13:36:02.635Z,22.60
2019-03-08T13:38:39.344Z,22.32
2019-03-08T13:41:16.497Z,22.42
2019-03-08T13:43:53.716Z,22.62
2019-03-08T13:46:30.440Z,21.10
2019-03-08T13:49:07.476Z,20.72
2019-03-08T13:51:44.662Z,21.62
2019-03-08T13:54:21.395Z,21.05
2019-03-08T13:56:57.922Z,21.37
2019-03-08T13:59:34.058Z,21.23
2019-03-08T14:02:11.557Z,20.95
2019-03-08T14:04:48.889Z,23.83
2019-03-08T14:07:25.733Z,26.50
2019-03-08T14:10:02.766Z,35.48
2019-03-08T14:12:39.495Z,31.45
2019-03-08T14:15:16.775Z,31.10
2019-03-08T14:17:53.497Z,28.05
2019-03-08T14:20:30.487Z,26.62
2019-03-08T14:23:07.570Z,25.77
2019-03-08T14:25:44.625Z,25.08
2019-03-08T14:28:21.383Z,24.70
2019-03-08T14:31:19.067Z,24.40
2019-03-08T14:33:56.084Z,25.48
2019-03-08T14:36:32.232Z,24.70
2019-03-08T14:39:09.161Z,26.87
2019-03-08T14:42:05.392Z,26.75
2019-03-08T14:45:07.123Z,26.55
2019-03-08T14:47:47.342Z,26.45
2019-03-08T14:50:24.195Z,27.40
2019-03-08T14:53:01.045Z,25.97
2019-03-08T14:55:37.860Z,26.02
2019-03-08T14:58:14.716Z,27.30
2019-03-08T15:00:52.225Z,27.27
2019-03-08T15:03:29.269Z,28.25
2019-03-08T15:06:05.880Z,28.83
2019-03-08T15:08:42.039Z,28.52
2019-03-08T15:11:19.239Z,29.25
2019-03-08T15:13:57.992Z,28.75
2019-03-08T15:16:35.290Z,29.00
2019-03-08T15:19:12.130Z,29.07
2019-03-08T15:21:48.887Z,29.80
2019-03-08T15:24:25.586Z,31.37
2019-03-08T15:27:02.479Z,31.07
2019-03-08T15:29:39.255Z,31.65
2019-03-08T15:32:16.315Z,32.05
2019-03-08T15:34:53.512Z,32.15
2019-03-08T15:37:30.240Z,33.40
2019-03-08T15:40:06.772Z,35.35
2019-03-08T15:42:43.852Z,32.40
2019-03-08T15:45:20.854Z,33.10
2019-03-08T15:47:57.363Z,32.98
2019-03-08T15:50:36.324Z,34.00
2019-03-08T15:53:13.387Z,32.95
2019-03-08T15:55:53.233Z,34.92
2019-03-08T15:58:28.134Z,34.15
2019-03-08T16:01:04.516Z,36.75
2019-03-08T16:03:41.417Z,39.48
2019-03-08T16:06:19.532Z,40.88
2019-03-08T16:08:56.583Z,39.88
2019-03-08T16:11:33.588Z,40.15
2019-03-08T16:14:10.304Z,41.75
2019-03-08T16:16:47.114Z,41.73
2019-03-08T16:19:24.717Z,46.23
2019-03-08T16:22:02.030Z,44.80
2019-03-08T16:24:39.338Z,45.50
2019-03-08T16:27:16.486Z,44.18
2019-03-08T16:29:53.141Z,43.52
2019-03-08T16:32:44.497Z,39.50
2019-03-08T16:35:21.762Z,39.38
2019-03-08T16:38:19.746Z,36.85
2019-03-08T16:41:12.746Z,40.98
2019-03-08T16:43:58.853Z,41.65
2019-03-08T16:46:56.921Z,42.58
2019-03-08T16:49:51.477Z,41.10
2019-03-08T16:52:47.438Z,41.95
2019-03-08T16:55:49.774Z,40.15
2019-03-08T16:58:50.847Z,41.05
2019-03-08T17:01:42.470Z,40.63
2019-03-08T17:04:36.669Z,38.25
2019-03-08T17:07:31.769Z,40.30
2019-03-08T17:10:45.859Z,39.13
2019-03-08T17:13:35.368Z,41.50
2019-03-08T17:16:48.654Z,40.73
2019-03-08T17:19:42.160Z,41.23
2019-03-08T17:22:27.746Z,39.80
2019-03-08T17:25:25.906Z,40.25
2019-03-08T17:28:19.743Z,41.20
2019-03-08T17:31:20.999Z,41.40
2019-03-08T17:34:16.196Z,40.75
2019-03-08T17:36:58.531Z,40.48
2019-03-08T17:39:59.133Z,42.50
2019-03-08T17:42:52.601Z,40.80
2019-03-08T17:45:59.292Z,40.35
2019-03-08T17:49:01.464Z,39.48
2019-03-08T17:51:55.351Z,40.60
2019-03-08T17:54:44.764Z,39.95
2019-03-08T17:57:35.040Z,42.30
2019-03-08T18:00:29.679Z,42.30
2019-03-08T18:03:18.782Z,40.50
2019-03-08T18:06:20.535Z,41.85
2019-03-08T18:09:18.516Z,42.78
2019-03-08T18:12:08.434Z,44.15
2019-03-08T18:15:09.336Z,43.52
2019-03-08T18:18:06.884Z,42.48
2019-03-08T18:21:05.897Z,40.92
2019-03-08T18:24:00.521Z,43.80
2019-03-08T18:26:54.152Z,43.90
2019-03-08T18:29:41.589Z,43.40
2019-03-08T18:32:48.462Z,45.17
2019-03-08T18:35:37.543Z,42.95
2019-03-08T18:38:30.802Z,45.30
2019-03-08T18:41:31.940Z,45.95
2019-03-08T18:44:28.357Z,46.80
2019-03-08T18:47:27.364Z,43.73
2019-03-08T18:50:16.039Z,45.98
2019-03-08T18:53:17.292Z,45.73
2019-03-08T18:56:10.759Z,46.95
2019-03-08T18:58:55.023Z,46.80
2019-03-08T19:01:46.309Z,47.65
2019-03-08T19:04:40.809Z,49.70
2019-03-08T19:07:30.125Z,50.33
2019-03-08T19:10:23.311Z,49.10
2019-03-08T19:13:06.648Z,47.95
2019-03-08T19:15:54.498Z,48.85
2019-03-08T19:18:52.626Z,49.65
2019-03-08T19:21:50.366Z,50.10
2019-03-08T19:24:52.259Z,49.60
2019-03-08T19:27:53.272Z,52.53
2019-03-08T19:30:48.718Z,48.75
2019-03-08T19:33:53.103Z,48.55
2019-03-08T19:36:38.181Z,49.93
2019-03-08T19:39:31.966Z,48.20
2019-03-08T19:42:35.984Z,49.55
2019-03-08T19:45:29.563Z,50.80
2019-03-08T19:48:18.545Z,49.75
2019-03-08T19:51:12.393Z,50.90
2019-03-08T19:53:52.097Z,51.92
2019-03-08T19:56:45.691Z,52.13
2019-03-08T19:59:45.281Z,51.92
2019-03-08T20:02:41.533Z,52.13
2019-03-08T20:05:31.934Z,49.38
2019-03-08T20:08:39.668Z,50.55
2019-03-08T20:11:35.484Z,48.08
2019-03-08T20:14:31.860Z,51.37
2019-03-08T20:17:50.263Z,50.12
2019-03-08T20:20:33.744Z,49.93
2019-03-08T20:23:34.725Z,50.38
2019-03-08T20:26:35.370Z,52.23
2019-03-08T20:29:30.780Z,48.92
2019-03-08T20:32:23.613Z,48.92
2019-03-08T20:35:21.847Z,51.83
2019-03-08T20:38:16.932Z,52.33
2019-03-08T20:41:06.789Z,48.60
2019-03-08T20:43:57.892Z,50.80
2019-03-08T20:46:45.635Z,51.77
2019-03-08T20:49:22.171Z,51.18
2019-03-08T20:51:58.761Z,51.65
2019-03-08T20:54:35.193Z,53.55
2019-03-08T20:57:12.204Z,50.30
2019-03-08T20:59:48.935Z,51.13
2019-03-08T21:02:26.020Z,51.88
2019-03-08T21:05:02.540Z,52.50
2019-03-08T21:07:39.841Z,51.55
2019-03-08T21:10:17.558Z,52.30
2019-03-08T21:12:54.878Z,51.73
2019-03-08T21:15:31.393Z,52.23
2019-03-08T21:18:08.699Z,49.73
2019-03-08T21:20:45.268Z,50.98
2019-03-08T21:23:22.183Z,51.02
2019-03-08T21:25:58.862Z,52.80
2019-03-08T21:28:35.655Z,52.35
2019-03-08T21:31:12.722Z,53.28
2019-03-08T21:33:49.250Z,51.10
2019-03-08T21:36:26.077Z,51.30
2019-03-08T21:39:02.959Z,51.58
2019-03-08T21:41:40.884Z,50.05
2019-03-08T21:44:17.261Z,48.92
2019-03-08T21:46:54.901Z,49.13
2019-03-08T21:49:31.785Z,50.08
2019-03-08T21:52:08.361Z,51.53
2019-03-08T21:54:45.461Z,51.05
2019-03-08T21:57:22.061Z,52.13
2019-03-08T21:59:59.086Z,52.08
2019-03-08T22:02:35.960Z,54.18
2019-03-08T22:05:13.273Z,52.17
2019-03-08T22:07:49.900Z,52.40
2019-03-08T22:10:50.924Z,54.15
2019-03-08T22:13:28.728Z,54.73
2019-03-08T22:16:05.516Z,52.93
2019-03-08T22:18:42.549Z,54.65
2019-03-08T22:21:19.518Z,53.98
2019-03-08T22:23:56.381Z,54.18
2019-03-08T22:26:32.943Z,52.05
2019-03-08T22:29:09.801Z,52.33
2019-03-08T22:31:46.121Z,55.95
2019-03-08T22:34:23.355Z,56.08
2019-03-08T22:37:00.056Z,54.15
2019-03-08T22:39:36.526Z,58.33
2019-03-08T22:42:13.594Z,54.93
2019-03-08T22:44:56.148Z,55.05
2019-03-08T22:47:33.913Z,58.28
2019-03-08T22:50:10.969Z,53.08
2019-03-08T22:52:48.156Z,53.58
2019-03-08T22:55:24.650Z,54.10
2019-03-08T22:58:01.878Z,55.20
2019-03-08T23:00:58.410Z,55.83
2019-03-08T23:03:37.021Z,54.25
2019-03-08T23:06:13.595Z,56.33
2019-03-08T23:08:50.094Z,54.93
2019-03-08T23:11:26.977Z,55.15
2019-03-08T23:14:05.207Z,57.83
2019-03-08T23:16:42.248Z,54.53
2019-03-08T23:19:18.666Z,57.75
2019-03-08T23:21:55.087Z,60.83
2019-03-08T23:24:31.566Z,59.45
2019-03-08T23:27:25.332Z,57.43
2019-03-08T23:30:20.225Z,58.85
2019-03-08T23:32:58.566Z,59.93
2019-03-08T23:35:35.112Z,62.43
2019-03-08T23:38:11.571Z,66.80
2019-03-08T23:40:48.544Z,73.02
2019-03-08T23:43:25.011Z,70.45
2019-03-08T23:46:02.254Z,64.80
2019-03-08T23:48:39.035Z,70.03
2019-03-08T23:51:16.016Z,77.25
2019-03-08T23:53:52.654Z,68.92
2019-03-08T23:56:29.474Z,77.35
2019-03-08T23:59:05.794Z,82.10
